Darstellungsparameter: Aktuell verwendete Einstellungen:
Skalierung der Graphiken ... ?
xyx+y,   Skalierungsfaktor:      Skalierung: Modus: x, Faktor: 1
Darstellungszeitraum ... ?
Vom - - bis: - -   Zeitraum: 08.06.2017 - 28.06.2017
Min/Max/Avg-Anzeige ... ?
Zeige MMA aktuell
Zeige MMA Monat
Zeige MMA alles
Zeige --A aktuell
Zeige --A Monat
Zeige --A alles
Keine MMA-Anzeige
MMA:
Minimum Maximum Average (ber die Originaldaten)
MMA-Basis: 08.06.2017 - 28.06.2017
Quicknavigation für Darstellung... ?
Tage:      1T, 2T, 3T, 5T -1T -2T -3T -5T +1T +2T +3T +5T
Wochen: 1W, 2W, 3W -1W -2W -3W +1W +2W +3W
Monate: 1M, 3M, 6M -1M -3M -6M +1M +3M +6M
Jahre:    1J, 3J, 5J, 10J -1J -3J -5J -10J +1J +3J +5J +10J
Nutze für die Darstellung ... ?
Originaldaten oder ...
Mittelwerte Minima Maxima auf...
Stundenbasis Tagesbasis Wochenbasis
Monatsbasis Jahresbasis      Datenbasis: Mittelwerte auf Stundenbasis
Darstellen als:
Statistik (Auto) Statistik J:M      Darstellung:
Zur Graphik,    zurück zur Übersicht aller Sensoren.
 
Tabellarische Datenbersicht: ?
 
Sensor: Nr:Datum:Temp:Abs-Feuchte:Windchill:Wind:
Aussen-T/F 1 08-06-2017 00:00:00 11.575 C 8.6 g/m*3 11.58 C 0.13333 km/h
2 08-06-2017 01:00:00 11.35 C 8.55 g/m*3 11.35 C 0.93333 km/h
3 08-06-2017 02:00:00 11.43333 C 8.56 g/m*3 11.43 C 0.26667 km/h
4 08-06-2017 03:00:00 11.11667 C 8.57 g/m*3 11.12 C 0.13333 km/h
5 08-06-2017 04:00:00 11.25833 C 8.72 g/m*3 11.26 C 0 km/h
6 08-06-2017 05:00:00 11.45 C 8.93 g/m*3 11.45 C 0 km/h
7 08-06-2017 06:00:00 11.86667 C 9.24 g/m*3 11.87 C 0 km/h
8 08-06-2017 07:00:00 12.725 C 9.92 g/m*3 12.73 C 0.13333 km/h
9 08-06-2017 08:00:00 14.45833 C 10.16 g/m*3 14.46 C 2 km/h
10 08-06-2017 09:00:00 16.19167 C 10.5 g/m*3 16.19 C 0.66667 km/h
11 08-06-2017 10:00:00 17.575 C 10.58 g/m*3 17.58 C 3.34167 km/h
12 08-06-2017 11:00:00 19.46667 C 10.27 g/m*3 19.47 C 12.075 km/h
13 08-06-2017 12:00:00 20.66667 C 10.2 g/m*3 20.67 C 15.16667 km/h
14 08-06-2017 13:00:00 21.25833 C 10.21 g/m*3 21.26 C 13.54167 km/h
15 08-06-2017 14:00:00 22.6 C 10.3 g/m*3 22.6 C 13.56667 km/h
16 08-06-2017 15:00:00 24.75833 C 10.69 g/m*3 24.76 C 10.20833 km/h
17 08-06-2017 16:00:00 26.36667 C 10.97 g/m*3 26.37 C 11.03333 km/h
18 08-06-2017 17:00:00 27.13333 C 11.43 g/m*3 27.13 C 9.00833 km/h
19 08-06-2017 18:00:00 26.26667 C 11.72 g/m*3 26.27 C 6.43333 km/h
20 08-06-2017 19:00:00 25.75 C 11.74 g/m*3 25.75 C 4.41667 km/h
21 08-06-2017 20:00:00 24.68333 C 12.34 g/m*3 24.68 C 2.4 km/h
22 08-06-2017 21:00:00 20.28333 C 11.85 g/m*3 20.28 C 0.93333 km/h
23 08-06-2017 22:00:00 17.54167 C 11.25 g/m*3 17.54 C 0.66667 km/h
24 08-06-2017 23:00:00 16.36667 C 11.05 g/m*3 16.37 C 0 km/h
25 09-06-2017 00:00:00 15.31667 C 10.69 g/m*3 15.32 C 0 km/h
Sensor: Nr:Datum:Temp:Abs-Feuchte:Windchill:Wind:
Aussen-T/F 26 09-06-2017 01:00:00 14.28333 C 10.36 g/m*3 14.28 C 0 km/h
27 09-06-2017 02:00:00 13.425 C 10.32 g/m*3 13.43 C 0 km/h
28 09-06-2017 03:00:00 13.225 C 10.38 g/m*3 13.23 C 0.4 km/h
29 09-06-2017 04:00:00 13.01667 C 10.22 g/m*3 13.02 C 0 km/h
30 09-06-2017 05:00:00 12.175 C 9.81 g/m*3 12.18 C 0 km/h
31 09-06-2017 06:00:00 12.41667 C 10.16 g/m*3 12.42 C 0.13333 km/h
32 09-06-2017 07:00:00 13.775 C 10.97 g/m*3 13.78 C 1.06667 km/h
33 09-06-2017 08:00:00 16.15 C 11.5 g/m*3 16.15 C 0.26667 km/h
34 09-06-2017 09:00:00 17.95 C 12.54 g/m*3 17.95 C 0 km/h
35 09-06-2017 10:00:00 18.69167 C 12.55 g/m*3 18.69 C 5.76667 km/h
36 09-06-2017 11:00:00 19.21667 C 12.48 g/m*3 19.22 C 7.51667 km/h
37 09-06-2017 12:00:00 17.95 C 13.14 g/m*3 17.95 C 5.09167 km/h
38 09-06-2017 13:00:00 18.58333 C 13.53 g/m*3 18.58 C 10.75833 km/h
39 09-06-2017 14:00:00 20.60833 C 13.53 g/m*3 20.61 C 15.03333 km/h
40 09-06-2017 15:00:00 21.15833 C 13.28 g/m*3 21.16 C 14.225 km/h
41 09-06-2017 16:00:00 21.48333 C 13.41 g/m*3 21.48 C 13.15 km/h
42 09-06-2017 17:00:00 19.00833 C 13.89 g/m*3 19.01 C 4.13333 km/h
43 09-06-2017 18:00:00 20.55833 C 13.57 g/m*3 20.56 C 6.98333 km/h
44 09-06-2017 19:00:00 21.125 C 12.76 g/m*3 21.13 C 6.84167 km/h
45 09-06-2017 20:00:00 20.33333 C 11.66 g/m*3 20.33 C 3.86667 km/h
46 09-06-2017 21:00:00 17.54167 C 11.42 g/m*3 17.54 C 0.53333 km/h
47 09-06-2017 22:00:00 14.99167 C 10.35 g/m*3 14.99 C 0.13333 km/h
48 09-06-2017 23:00:00 13.40833 C 9.9 g/m*3 13.41 C 0.13333 km/h
49 10-06-2017 00:00:00 12.25 C 9.5 g/m*3 12.25 C 0.4 km/h
50 10-06-2017 01:00:00 11.79167 C 9.29 g/m*3 11.79 C 0.13333 km/h
Sensor: Nr:Datum:Temp:Abs-Feuchte:Windchill:Wind:
Aussen-T/F 51 10-06-2017 02:00:00 10.99167 C 8.94 g/m*3 10.99 C 0.66667 km/h
52 10-06-2017 03:00:00 10.475 C 8.76 g/m*3 10.48 C 1.46667 km/h
53 10-06-2017 04:00:00 9.875 C 8.55 g/m*3 9.88 C 1.46667 km/h
54 10-06-2017 05:00:00 9.49167 C 8.42 g/m*3 9.49 C 3.33333 km/h
55 10-06-2017 06:00:00 9.69167 C 8.53 g/m*3 9.69 C 1.86667 km/h
56 10-06-2017 07:00:00 9.83333 C 8.66 g/m*3 9.83 C 0 km/h
57 10-06-2017 08:00:00 10.725 C 9.27 g/m*3 10.73 C 0 km/h
58 10-06-2017 09:00:00 12.91667 C 10.44 g/m*3 12.92 C 1.33333 km/h
59 10-06-2017 10:00:00 18.08333 C 11.08 g/m*3 18.08 C 10.09167 km/h
60 10-06-2017 11:00:00 20.35 C 11.24 g/m*3 20.35 C 9.675 km/h
61 10-06-2017 12:00:00 21.11667 C 10.67 g/m*3 21.12 C 7.24167 km/h
62 10-06-2017 13:00:00 21.925 C 10.68 g/m*3 21.93 C 8.6 km/h
63 10-06-2017 14:00:00 23.35 C 10.76 g/m*3 23.35 C 10.75833 km/h
64 10-06-2017 15:00:00 24.7 C 11.07 g/m*3 24.7 C 6.84167 km/h
65 10-06-2017 16:00:00 26.65 C 10.62 g/m*3 26.65 C 8.99167 km/h
66 10-06-2017 17:00:00 27.54167 C 10.14 g/m*3 27.54 C 9.29167 km/h
67 10-06-2017 18:00:00 28.06667 C 10.42 g/m*3 28.07 C 7.125 km/h
68 10-06-2017 19:00:00 27.09167 C 11.27 g/m*3 27.09 C 4.81667 km/h
69 10-06-2017 20:00:00 24.65 C 12.38 g/m*3 24.65 C 0.13333 km/h
70 10-06-2017 21:00:00 20.55 C 11.5 g/m*3 20.55 C 1.06667 km/h
71 10-06-2017 22:00:00 18.23333 C 11.2 g/m*3 18.23 C 0 km/h
72 10-06-2017 23:00:00 16.45833 C 10.75 g/m*3 16.46 C 0 km/h
73 11-06-2017 00:00:00 15.34167 C 10.54 g/m*3 15.34 C 0 km/h
74 11-06-2017 01:00:00 14.43333 C 10.45 g/m*3 14.43 C 0 km/h
75 11-06-2017 02:00:00 13.59167 C 10.32 g/m*3 13.59 C 0 km/h
Sensor: Nr:Datum:Temp:Abs-Feuchte:Windchill:Wind:
Aussen-T/F 76 11-06-2017 03:00:00 12.99167 C 10.17 g/m*3 12.99 C 0 km/h
77 11-06-2017 04:00:00 12.625 C 10.02 g/m*3 12.63 C 0 km/h
78 11-06-2017 05:00:00 12.00833 C 9.77 g/m*3 12.01 C 0 km/h
79 11-06-2017 06:00:00 12.025 C 9.92 g/m*3 12.03 C 0 km/h
80 11-06-2017 07:00:00 13.30833 C 10.86 g/m*3 13.31 C 0 km/h
81 11-06-2017 08:00:00 14.71667 C 11.67 g/m*3 14.72 C 0 km/h
82 11-06-2017 09:00:00 16.31667 C 12.56 g/m*3 16.32 C 0 km/h
83 11-06-2017 10:00:00 19.85833 C 13.98 g/m*3 19.86 C 0.675 km/h
84 11-06-2017 11:00:00 23.14167 C 12.69 g/m*3 23.14 C 5.475 km/h
85 11-06-2017 12:00:00 24.625 C 12.08 g/m*3 24.63 C 6.56667 km/h
86 11-06-2017 13:00:00 25.875 C 11.91 g/m*3 25.88 C 6.575 km/h
87 11-06-2017 14:00:00 27.24167 C 12.54 g/m*3 27.24 C 7.925 km/h
88 11-06-2017 15:00:00 29.85833 C 12.92 g/m*3 29.86 C 9.26667 km/h
89 11-06-2017 16:00:00 29.74167 C 14.6 g/m*3 29.74 C 3.75 km/h
90 11-06-2017 17:00:00 27.3 C 16.29 g/m*3 27.3 C 0.93333 km/h
91 11-06-2017 18:00:00 28.74167 C 16.21 g/m*3 28.74 C 1.73333 km/h
92 11-06-2017 19:00:00 25.425 C 14.34 g/m*3 25.43 C 1.73333 km/h
93 11-06-2017 20:00:00 24.41667 C 13.68 g/m*3 24.42 C 0.66667 km/h
94 11-06-2017 21:00:00 23.36667 C 13.29 g/m*3 23.37 C 0.4 km/h
95 11-06-2017 22:00:00 21.21667 C 12.75 g/m*3 21.22 C 0.13333 km/h
96 11-06-2017 23:00:00 21.00833 C 13.2 g/m*3 21.01 C 0 km/h
97 12-06-2017 00:00:00 20.53333 C 13.61 g/m*3 20.53 C 0 km/h
98 12-06-2017 01:00:00 20.30833 C 13.48 g/m*3 20.31 C 1.46667 km/h
99 12-06-2017 02:00:00 21.01667 C 14.01 g/m*3 21.02 C 9.26667 km/h
100 12-06-2017 03:00:00 19.86667 C 13.89 g/m*3 19.87 C 4.95833 km/h
Sensor: Nr:Datum:Temp:Abs-Feuchte:Windchill:Wind:
Aussen-T/F 101 12-06-2017 04:00:00 18.63333 C 13.53 g/m*3 18.63 C 0.8 km/h
102 12-06-2017 05:00:00 18.31667 C 13.51 g/m*3 18.32 C 0 km/h
103 12-06-2017 06:00:00 18.38333 C 10.33 g/m*3 18.38 C 7.90833 km/h
104 12-06-2017 07:00:00 18.06667 C 9.2 g/m*3 18.07 C 4.14167 km/h
105 12-06-2017 08:00:00 18.425 C 9.65 g/m*3 18.43 C 3.34167 km/h
106 12-06-2017 09:00:00 18.825 C 9.29 g/m*3 18.83 C 10.61667 km/h
107 12-06-2017 10:00:00 20.15833 C 8.79 g/m*3 20.16 C 13.3 km/h
108 12-06-2017 11:00:00 20.58333 C 8.85 g/m*3 20.58 C 12.225 km/h
109 12-06-2017 12:00:00 20.95 C 8.28 g/m*3 20.95 C 12.75833 km/h
110 12-06-2017 13:00:00 21.63333 C 7.87 g/m*3 21.63 C 13.15833 km/h
111 12-06-2017 14:00:00 22.58333 C 7.81 g/m*3 22.58 C 12.76667 km/h
112 12-06-2017 15:00:00 24.29167 C 8.41 g/m*3 24.29 C 14.63333 km/h
113 12-06-2017 16:00:00 25.275 C 8.61 g/m*3 25.28 C 14.36667 km/h
114 12-06-2017 17:00:00 23.65833 C 9.34 g/m*3 23.66 C 14.1 km/h
115 12-06-2017 18:00:00 22.725 C 9.51 g/m*3 22.73 C 15.16667 km/h
116 12-06-2017 19:00:00 21.75 C 9.36 g/m*3 21.75 C 12.63333 km/h
117 12-06-2017 20:00:00 20.38333 C 9.54 g/m*3 20.38 C 9.15 km/h
118 12-06-2017 21:00:00 18.04167 C 9.69 g/m*3 18.04 C 5.5 km/h
119 12-06-2017 22:00:00 15.85 C 9.65 g/m*3 15.85 C 1.86667 km/h
120 12-06-2017 23:00:00 14.94167 C 9.24 g/m*3 14.94 C 1.46667 km/h
121 13-06-2017 00:00:00 14.31667 C 9.01 g/m*3 14.32 C 0.26667 km/h
122 13-06-2017 01:00:00 14.89167 C 9.21 g/m*3 14.89 C 0.66667 km/h
123 13-06-2017 02:00:00 15.10833 C 9.37 g/m*3 15.11 C 1.86667 km/h
124 13-06-2017 03:00:00 14.53333 C 9.4 g/m*3 14.53 C 1.86667 km/h
125 13-06-2017 04:00:00 13.79167 C 9.42 g/m*3 13.79 C 1.6 km/h
Sensor: Nr:Datum:Temp:Abs-Feuchte:Windchill:Wind:
Aussen-T/F 126 13-06-2017 05:00:00 12.15 C 9.01 g/m*3 12.15 C 0 km/h
127 13-06-2017 06:00:00 11.35833 C 9.04 g/m*3 11.36 C 2.13333 km/h
128 13-06-2017 07:00:00 12.075 C 9.41 g/m*3 12.08 C 5.775 km/h
129 13-06-2017 08:00:00 13.65833 C 9.76 g/m*3 13.66 C 4.80833 km/h
130 13-06-2017 09:00:00 15.04167 C 10.24 g/m*3 15.04 C 2.00833 km/h
131 13-06-2017 10:00:00 17.73333 C 10.29 g/m*3 17.73 C 4.41667 km/h
132 13-06-2017 11:00:00 18.75 C 9.92 g/m*3 18.75 C 3.06667 km/h
133 13-06-2017 12:00:00 19.29167 C 9.85 g/m*3 19.29 C 6.15833 km/h
134 13-06-2017 13:00:00 20.16667 C 9.9 g/m*3 20.17 C 5.625 km/h
135 13-06-2017 14:00:00 20.63333 C 9.97 g/m*3 20.63 C 7.39167 km/h
136 13-06-2017 15:00:00 21.275 C 10.16 g/m*3 21.28 C 7 km/h
137 13-06-2017 16:00:00 22.625 C 10.09 g/m*3 22.63 C 9.80833 km/h
138 13-06-2017 17:00:00 23.275 C 9.88 g/m*3 23.28 C 8.2 km/h
139 13-06-2017 18:00:00 23.6 C 9.85 g/m*3 23.6 C 9.69167 km/h
140 13-06-2017 19:00:00 22.18333 C 10 g/m*3 22.18 C 8.33333 km/h
141 13-06-2017 20:00:00 20.79167 C 10.18 g/m*3 20.79 C 7.79167 km/h
142 13-06-2017 21:00:00 19.13333 C 10.58 g/m*3 19.13 C 2.26667 km/h
143 13-06-2017 22:00:00 16.35833 C 10.21 g/m*3 16.36 C 0.26667 km/h
144 13-06-2017 23:00:00 15 C 10.12 g/m*3 15 C 0 km/h
145 14-06-2017 00:00:00 13.61667 C 9.94 g/m*3 13.62 C 0 km/h
146 14-06-2017 01:00:00 12.68333 C 9.73 g/m*3 12.68 C 0 km/h
147 14-06-2017 02:00:00 12.01667 C 9.55 g/m*3 12.02 C 0 km/h
148 14-06-2017 03:00:00 11.35 C 9.32 g/m*3 11.35 C 0 km/h
149 14-06-2017 04:00:00 10.90833 C 9.19 g/m*3 10.91 C 0 km/h
150 14-06-2017 05:00:00 10.625 C 9.12 g/m*3 10.63 C 0 km/h
Sensor: Nr:Datum:Temp:Abs-Feuchte:Windchill:Wind:
Aussen-T/F 151 14-06-2017 06:00:00 10.74167 C 9.26 g/m*3 10.74 C 0 km/h
152 14-06-2017 07:00:00 11.31667 C 9.62 g/m*3 11.32 C 0 km/h
153 14-06-2017 08:00:00 12.51667 C 10.45 g/m*3 12.52 C 0.8 km/h
154 14-06-2017 09:00:00 15.44167 C 11.16 g/m*3 15.44 C 6.15833 km/h
155 14-06-2017 10:00:00 19.075 C 11.17 g/m*3 19.08 C 8.89167 km/h
156 14-06-2017 11:00:00 20.26667 C 10.93 g/m*3 20.27 C 7.25 km/h
157 14-06-2017 12:00:00 21.43333 C 10.89 g/m*3 21.43 C 9.95 km/h
158 14-06-2017 13:00:00 22.39167 C 11.02 g/m*3 22.39 C 8.875 km/h
159 14-06-2017 14:00:00 23.43333 C 11.04 g/m*3 23.43 C 8.99167 km/h
160 14-06-2017 15:00:00 25.33333 C 11.22 g/m*3 25.33 C 7.64167 km/h
161 14-06-2017 16:00:00 27.01667 C 11.14 g/m*3 27.02 C 11.95833 km/h
162 14-06-2017 17:00:00 27.75833 C 11.16 g/m*3 27.76 C 8.88333 km/h
163 14-06-2017 18:00:00 28.25833 C 10.94 g/m*3 28.26 C 7.25 km/h
164 14-06-2017 19:00:00 27.33333 C 11.05 g/m*3 27.33 C 8.05 km/h
165 14-06-2017 20:00:00 25.71667 C 11.7 g/m*3 25.72 C 4.55 km/h
166 14-06-2017 21:00:00 22.05 C 11.95 g/m*3 22.05 C 0.13333 km/h
167 14-06-2017 22:00:00 19.01667 C 11.3 g/m*3 19.02 C 0.26667 km/h
168 14-06-2017 23:00:00 17.68333 C 11.18 g/m*3 17.68 C 0 km/h
169 15-06-2017 00:00:00 16.58333 C 10.97 g/m*3 16.58 C 0 km/h
170 15-06-2017 01:00:00 15.61667 C 10.77 g/m*3 15.62 C 0 km/h
171 15-06-2017 02:00:00 14.59167 C 10.63 g/m*3 14.59 C 0.13333 km/h
172 15-06-2017 03:00:00 14.15833 C 10.64 g/m*3 14.16 C 0 km/h
173 15-06-2017 04:00:00 13.45 C 10.34 g/m*3 13.45 C 0 km/h
174 15-06-2017 05:00:00 12.84167 C 10.18 g/m*3 12.84 C 0.13333 km/h
175 15-06-2017 06:00:00 13.06667 C 10.48 g/m*3 13.07 C 0 km/h
Sensor: Nr:Datum:Temp:Abs-Feuchte:Windchill:Wind:
Aussen-T/F 176 15-06-2017 07:00:00 13.65 C 10.94 g/m*3 13.65 C 0.13333 km/h
177 15-06-2017 08:00:00 15.04167 C 11.82 g/m*3 15.04 C 0.53333 km/h
178 15-06-2017 09:00:00 16.975 C 12.87 g/m*3 16.98 C 0 km/h
179 15-06-2017 10:00:00 20.15 C 14.03 g/m*3 20.15 C 0.8 km/h
180 15-06-2017 11:00:00 23.05833 C 14.45 g/m*3 23.06 C 1.6 km/h
181 15-06-2017 12:00:00 26.34167 C 13.05 g/m*3 26.34 C 10.09167 km/h
182 15-06-2017 13:00:00 27.93333 C 11.94 g/m*3 27.93 C 11.96667 km/h
183 15-06-2017 14:00:00 28.91667 C 11.79 g/m*3 28.92 C 9.95 km/h
184 15-06-2017 15:00:00 31.58333 C 12.05 g/m*3 31.58 C 11.16667 km/h
185 15-06-2017 16:00:00 30.66667 C 14.51 g/m*3 30.67 C 2.95 km/h
186 15-06-2017 17:00:00 26.725 C 15.19 g/m*3 26.73 C 0.66667 km/h
187 15-06-2017 18:00:00 25.30833 C 14.07 g/m*3 25.31 C 2.675 km/h
188 15-06-2017 19:00:00 25.54167 C 14.42 g/m*3 25.54 C 1.86667 km/h
189 15-06-2017 20:00:00 26.75833 C 15.13 g/m*3 26.76 C 2.40833 km/h
190 15-06-2017 21:00:00 24.53333 C 14.8 g/m*3 24.53 C 2.4 km/h
191 15-06-2017 22:00:00 22.55833 C 14.28 g/m*3 22.56 C 1.33333 km/h
192 15-06-2017 23:00:00 22.34167 C 12.52 g/m*3 22.34 C 10.2 km/h
193 16-06-2017 00:00:00 21.1 C 11.25 g/m*3 21.1 C 3.33333 km/h
194 16-06-2017 01:00:00 19.59167 C 10.48 g/m*3 19.59 C 3.88333 km/h
195 16-06-2017 02:00:00 18.84167 C 10.44 g/m*3 18.84 C 2.825 km/h
196 16-06-2017 03:00:00 17.14167 C 10.68 g/m*3 17.14 C 0.13333 km/h
197 16-06-2017 04:00:00 16.86667 C 10.83 g/m*3 16.87 C 3.89167 km/h
198 16-06-2017 05:00:00 17.175 C 10.83 g/m*3 17.18 C 6.30833 km/h
199 16-06-2017 06:00:00 16.60833 C 10.92 g/m*3 16.61 C 2.26667 km/h
200 16-06-2017 07:00:00 15.875 C 11.03 g/m*3 15.88 C 0.53333 km/h
Sensor: Nr:Datum:Temp:Abs-Feuchte:Windchill:Wind:
Aussen-T/F 201 16-06-2017 08:00:00 16.6 C 10.87 g/m*3 16.6 C 6.98333 km/h
202 16-06-2017 09:00:00 18.29167 C 10.47 g/m*3 18.29 C 11.15 km/h
203 16-06-2017 10:00:00 19.66667 C 10.17 g/m*3 19.67 C 11.025 km/h
204 16-06-2017 11:00:00 20.225 C 10.48 g/m*3 20.23 C 10.48333 km/h
205 16-06-2017 12:00:00 20.525 C 9.74 g/m*3 20.53 C 13.69167 km/h
206 16-06-2017 13:00:00 21.01667 C 9.47 g/m*3 21.02 C 13.43333 km/h
207 16-06-2017 14:00:00 21.25 C 9.48 g/m*3 21.25 C 15.96667 km/h
208 16-06-2017 15:00:00 21.74167 C 9.54 g/m*3 21.74 C 14.9 km/h
209 16-06-2017 16:00:00 21.26667 C 9.5 g/m*3 21.27 C 12.225 km/h
210 16-06-2017 17:00:00 21.225 C 9.79 g/m*3 21.23 C 11.83333 km/h
211 16-06-2017 18:00:00 20.18333 C 9.91 g/m*3 20.18 C 11.425 km/h
212 16-06-2017 19:00:00 19.61667 C 9.7 g/m*3 19.62 C 13.43333 km/h
213 16-06-2017 20:00:00 18.975 C 9.49 g/m*3 18.98 C 9.54167 km/h
214 16-06-2017 21:00:00 18.15833 C 9.26 g/m*3 18.16 C 7.50833 km/h
215 16-06-2017 22:00:00 17.175 C 9.5 g/m*3 17.18 C 3.20833 km/h
216 16-06-2017 23:00:00 16.34167 C 9.37 g/m*3 16.34 C 3.475 km/h
217 17-06-2017 00:00:00 15.14167 C 9.23 g/m*3 15.14 C 4.01667 km/h
218 17-06-2017 01:00:00 13.95 C 9.08 g/m*3 13.95 C 1.06667 km/h
219 17-06-2017 02:00:00 13.20833 C 9.02 g/m*3 13.21 C 0.4 km/h
220 17-06-2017 03:00:00 12.56667 C 8.99 g/m*3 12.57 C 0 km/h
221 17-06-2017 04:00:00 11.65 C 8.84 g/m*3 11.65 C 0.13333 km/h
222 17-06-2017 05:00:00 10.85833 C 8.71 g/m*3 10.86 C 0 km/h
223 17-06-2017 06:00:00 11.05 C 8.98 g/m*3 11.05 C 3.88333 km/h
224 17-06-2017 07:00:00 12.50833 C 9.54 g/m*3 12.51 C 4.54167 km/h
225 17-06-2017 08:00:00 14.41667 C 9.98 g/m*3 14.42 C 6.69167 km/h
Sensor: Nr:Datum:Temp:Abs-Feuchte:Windchill:Wind:
Aussen-T/F 226 17-06-2017 09:00:00 16.04167 C 10.26 g/m*3 16.04 C 4.80833 km/h
227 17-06-2017 10:00:00 16.96667 C 10.6 g/m*3 16.97 C 1.86667 km/h
228 17-06-2017 11:00:00 17.53333 C 11.15 g/m*3 17.53 C 7.11667 km/h
229 17-06-2017 12:00:00 17.56667 C 11.6 g/m*3 17.57 C 7.11667 km/h
230 17-06-2017 13:00:00 18.83333 C 12.06 g/m*3 18.83 C 6.55833 km/h
231 17-06-2017 14:00:00 19.96667 C 12.25 g/m*3 19.97 C 2.13333 km/h
232 17-06-2017 15:00:00 19.89167 C 12.51 g/m*3 19.89 C 5.60833 km/h
233 17-06-2017 16:00:00 20.35833 C 12.87 g/m*3 20.36 C 1.2 km/h
234 17-06-2017 17:00:00 22.175 C 13.38 g/m*3 22.18 C 6.44167 km/h
235 17-06-2017 18:00:00 22.26667 C 13.22 g/m*3 22.27 C 6.55833 km/h
236 17-06-2017 19:00:00 22.54167 C 13.18 g/m*3 22.54 C 8.46667 km/h
237 17-06-2017 20:00:00 21.75 C 13.09 g/m*3 21.75 C 3.475 km/h
238 17-06-2017 21:00:00 20.175 C 13.24 g/m*3 20.18 C 0 km/h
239 17-06-2017 22:00:00 19.10833 C 13.02 g/m*3 19.11 C 0 km/h
240 17-06-2017 23:00:00 18.68333 C 13.04 g/m*3 18.68 C 0 km/h
241 18-06-2017 00:00:00 18.35 C 13.07 g/m*3 18.35 C 0 km/h
242 18-06-2017 01:00:00 18.04167 C 13.04 g/m*3 18.04 C 0 km/h
243 18-06-2017 02:00:00 17.69167 C 13.01 g/m*3 17.69 C 0 km/h
244 18-06-2017 03:00:00 17.35833 C 12.9 g/m*3 17.36 C 0 km/h
245 18-06-2017 04:00:00 16.98333 C 12.76 g/m*3 16.98 C 0 km/h
246 18-06-2017 05:00:00 16.61667 C 12.68 g/m*3 16.62 C 0 km/h
247 18-06-2017 06:00:00 16.975 C 13.12 g/m*3 16.98 C 0 km/h
248 18-06-2017 07:00:00 17.94167 C 13.52 g/m*3 17.94 C 0 km/h
249 18-06-2017 08:00:00 18.75833 C 13.75 g/m*3 18.76 C 2.13333 km/h
250 18-06-2017 09:00:00 19.6 C 13.72 g/m*3 19.6 C 6.84167 km/h
Sensor: Nr:Datum:Temp:Abs-Feuchte:Windchill:Wind:
Aussen-T/F 251 18-06-2017 10:00:00 21.33333 C 13.38 g/m*3 21.33 C 8.475 km/h
252 18-06-2017 11:00:00 22.175 C 13.25 g/m*3 22.18 C 5.35833 km/h
253 18-06-2017 12:00:00 23.275 C 13.01 g/m*3 23.28 C 7.25833 km/h
254 18-06-2017 13:00:00 23.725 C 12.8 g/m*3 23.73 C 9.15833 km/h
255 18-06-2017 14:00:00 24.16667 C 12.79 g/m*3 24.17 C 9.4 km/h
256 18-06-2017 15:00:00 25.44167 C 12.57 g/m*3 25.44 C 11.55833 km/h
257 18-06-2017 16:00:00 27.01667 C 12.34 g/m*3 27.02 C 11.7 km/h
258 18-06-2017 17:00:00 27.55 C 12.25 g/m*3 27.55 C 11.83333 km/h
259 18-06-2017 18:00:00 27.83333 C 12.06 g/m*3 27.83 C 12.5 km/h
260 18-06-2017 19:00:00 27.00833 C 12.08 g/m*3 27.01 C 12.1 km/h
261 18-06-2017 20:00:00 26.45 C 12.25 g/m*3 26.45 C 6.28333 km/h
262 18-06-2017 21:00:00 23.55 C 12.8 g/m*3 23.55 C 0.93333 km/h
263 18-06-2017 22:00:00 20.38333 C 12.08 g/m*3 20.38 C 1.2 km/h
264 18-06-2017 23:00:00 18.85833 C 11.96 g/m*3 18.86 C 0 km/h
265 19-06-2017 00:00:00 16.825 C 11.63 g/m*3 16.83 C 0 km/h
266 19-06-2017 01:00:00 15.48333 C 11.31 g/m*3 15.48 C 0 km/h
267 19-06-2017 02:00:00 14.64167 C 11.13 g/m*3 14.64 C 0 km/h
268 19-06-2017 03:00:00 14.03333 C 10.87 g/m*3 14.03 C 0 km/h
269 19-06-2017 04:00:00 13.50833 C 10.69 g/m*3 13.51 C 0 km/h
270 19-06-2017 05:00:00 13.00833 C 10.48 g/m*3 13.01 C 0 km/h
271 19-06-2017 06:00:00 12.89167 C 10.5 g/m*3 12.89 C 0 km/h
272 19-06-2017 07:00:00 13.39167 C 10.93 g/m*3 13.39 C 0 km/h
273 19-06-2017 08:00:00 14.45 C 11.69 g/m*3 14.45 C 0 km/h
274 19-06-2017 09:00:00 16.725 C 12.98 g/m*3 16.73 C 1.86667 km/h
275 19-06-2017 10:00:00 22.06667 C 13.46 g/m*3 22.07 C 7.39167 km/h
Sensor: Nr:Datum:Temp:Abs-Feuchte:Windchill:Wind:
Aussen-T/F 276 19-06-2017 11:00:00 24.71667 C 12.22 g/m*3 24.72 C 6.71667 km/h
277 19-06-2017 12:00:00 26.15 C 11.01 g/m*3 26.15 C 9.68333 km/h
278 19-06-2017 13:00:00 27.13333 C 10.61 g/m*3 27.13 C 9 km/h
279 19-06-2017 14:00:00 28.21667 C 10.92 g/m*3 28.22 C 9.95 km/h
280 19-06-2017 15:00:00 30.025 C 11.03 g/m*3 30.03 C 8.075 km/h
281 19-06-2017 16:00:00 31.85 C 10.86 g/m*3 31.85 C 10.61667 km/h
282 19-06-2017 17:00:00 32.825 C 10.82 g/m*3 32.83 C 8.05 km/h
283 19-06-2017 18:00:00 33.61667 C 10.88 g/m*3 33.62 C 5.61667 km/h
284 19-06-2017 19:00:00 32.44167 C 11.69 g/m*3 32.44 C 3.60833 km/h
285 19-06-2017 20:00:00 29.25 C 13.1 g/m*3 29.25 C 1.33333 km/h
286 19-06-2017 21:00:00 24.89167 C 12.03 g/m*3 24.89 C 1.33333 km/h
287 19-06-2017 22:00:00 21.86667 C 12.07 g/m*3 21.87 C 0 km/h
288 19-06-2017 23:00:00 19.59167 C 11.84 g/m*3 19.59 C 0 km/h
289 20-06-2017 00:00:00 17.91667 C 11.65 g/m*3 17.92 C 0 km/h
290 20-06-2017 01:00:00 16.91667 C 11.54 g/m*3 16.92 C 0 km/h
291 20-06-2017 02:00:00 16.05833 C 11.41 g/m*3 16.06 C 0 km/h
292 20-06-2017 03:00:00 15.40833 C 11.16 g/m*3 15.41 C 0 km/h
293 20-06-2017 04:00:00 14.675 C 10.95 g/m*3 14.68 C 0 km/h
294 20-06-2017 05:00:00 14.175 C 10.82 g/m*3 14.18 C 0 km/h
295 20-06-2017 06:00:00 14.21667 C 10.99 g/m*3 14.22 C 0 km/h
296 20-06-2017 07:00:00 14.68333 C 11.39 g/m*3 14.68 C 0 km/h
297 20-06-2017 08:00:00 15.79167 C 11.97 g/m*3 15.79 C 0 km/h
298 20-06-2017 09:00:00 17.825 C 12.87 g/m*3 17.83 C 0 km/h
299 20-06-2017 10:00:00 21.825 C 13.99 g/m*3 21.83 C 0.8 km/h
300 20-06-2017 11:00:00 25.21667 C 14.08 g/m*3 25.22 C 1.33333 km/h
Sensor: Nr:Datum:Temp:Abs-Feuchte:Windchill:Wind:
Aussen-T/F 301 20-06-2017 12:00:00 27.625 C 12.23 g/m*3 27.63 C 3.73333 km/h
302 20-06-2017 13:00:00 29.75 C 11.09 g/m*3 29.75 C 7.64167 km/h
303 20-06-2017 14:00:00 31.09167 C 10.99 g/m*3 31.09 C 10.09167 km/h
304 20-06-2017 15:00:00 32.70833 C 10.87 g/m*3 32.71 C 10.21667 km/h
305 20-06-2017 16:00:00 34.325 C 11.16 g/m*3 34.33 C 10.35 km/h
306 20-06-2017 17:00:00 33.94167 C 11.63 g/m*3 33.94 C 11.56667 km/h
307 20-06-2017 18:00:00 33.3 C 11.69 g/m*3 33.3 C 10.23333 km/h
308 20-06-2017 19:00:00 32.5 C 12.22 g/m*3 32.5 C 9.15 km/h
309 20-06-2017 20:00:00 30.2 C 14.2 g/m*3 30.2 C 7.10833 km/h
310 20-06-2017 21:00:00 27.16667 C 14.65 g/m*3 27.17 C 1.2 km/h
311 20-06-2017 22:00:00 24.61667 C 14.68 g/m*3 24.62 C 0.26667 km/h
312 20-06-2017 23:00:00 23.28333 C 14.5 g/m*3 23.28 C 0 km/h
313 21-06-2017 00:00:00 22.725 C 14.69 g/m*3 22.73 C 1.475 km/h
314 21-06-2017 01:00:00 22.04167 C 14.72 g/m*3 22.04 C 0 km/h
315 21-06-2017 02:00:00 21.35 C 14.41 g/m*3 21.35 C 0 km/h
316 21-06-2017 03:00:00 20.70833 C 14.29 g/m*3 20.71 C 0 km/h
317 21-06-2017 04:00:00 19.86667 C 14.02 g/m*3 19.87 C 0 km/h
318 21-06-2017 05:00:00 19.24167 C 13.82 g/m*3 19.24 C 0 km/h
319 21-06-2017 06:00:00 18.925 C 13.84 g/m*3 18.93 C 0 km/h
320 21-06-2017 07:00:00 20.28333 C 14.35 g/m*3 20.28 C 4.41667 km/h
321 21-06-2017 08:00:00 21.69167 C 14.19 g/m*3 21.69 C 5.89167 km/h
322 21-06-2017 09:00:00 22.45 C 14.37 g/m*3 22.45 C 5.2 km/h
323 21-06-2017 10:00:00 24.23333 C 14.88 g/m*3 24.23 C 7.50833 km/h
324 21-06-2017 11:00:00 25.81667 C 15.02 g/m*3 25.82 C 9.15833 km/h
325 21-06-2017 12:00:00 27.28333 C 14.79 g/m*3 27.28 C 8.06667 km/h
Sensor: Nr:Datum:Temp:Abs-Feuchte:Windchill:Wind:
Aussen-T/F 326 21-06-2017 13:00:00 28.39167 C 14.22 g/m*3 28.39 C 11.00833 km/h
327 21-06-2017 14:00:00 29.45833 C 13.64 g/m*3 29.46 C 6.98333 km/h
328 21-06-2017 15:00:00 30.925 C 13.41 g/m*3 30.93 C 7.925 km/h
329 21-06-2017 16:00:00 32.2 C 12.68 g/m*3 32.2 C 7.51667 km/h
330 21-06-2017 17:00:00 32.34167 C 11.8 g/m*3 32.34 C 5.34167 km/h
331 21-06-2017 18:00:00 33.375 C 11.16 g/m*3 33.38 C 6.98333 km/h
332 21-06-2017 19:00:00 32.15833 C 13.16 g/m*3 32.16 C 1.86667 km/h
333 21-06-2017 20:00:00 28.475 C 14.1 g/m*3 28.48 C 0.8 km/h
334 21-06-2017 21:00:00 25.825 C 13.62 g/m*3 25.83 C 0.93333 km/h
335 21-06-2017 22:00:00 23.68333 C 13.39 g/m*3 23.68 C 0.13333 km/h
336 21-06-2017 23:00:00 21.80833 C 13.55 g/m*3 21.81 C 0 km/h
337 22-06-2017 00:00:00 20.50833 C 13.57 g/m*3 20.51 C 0 km/h
338 22-06-2017 01:00:00 19.475 C 13.55 g/m*3 19.48 C 0 km/h
339 22-06-2017 02:00:00 18.61667 C 13.28 g/m*3 18.62 C 0 km/h
340 22-06-2017 03:00:00 18.10833 C 13.27 g/m*3 18.11 C 0.26667 km/h
341 22-06-2017 04:00:00 17.65833 C 13.14 g/m*3 17.66 C 0.53333 km/h
342 22-06-2017 05:00:00 17.08333 C 12.86 g/m*3 17.08 C 0.13333 km/h
343 22-06-2017 06:00:00 17.15 C 13.19 g/m*3 17.15 C 0.26667 km/h
344 22-06-2017 07:00:00 18.09167 C 13.91 g/m*3 18.09 C 0 km/h
345 22-06-2017 08:00:00 19.875 C 15.2 g/m*3 19.88 C 0.13333 km/h
346 22-06-2017 09:00:00 22.475 C 16.27 g/m*3 22.48 C 0.13333 km/h
347 22-06-2017 10:00:00 25.525 C 17.92 g/m*3 25.53 C 0.8 km/h
348 22-06-2017 11:00:00 29.34167 C 17.17 g/m*3 29.34 C 5.1 km/h
349 22-06-2017 12:00:00 31.05833 C 16.27 g/m*3 31.06 C 8.2 km/h
350 22-06-2017 13:00:00 33.25833 C 15.22 g/m*3 33.26 C 12.225 km/h
Sensor: Nr:Datum:Temp:Abs-Feuchte:Windchill:Wind:
Aussen-T/F 351 22-06-2017 14:00:00 33.13333 C 14.94 g/m*3 33.13 C 8.99167 km/h
352 22-06-2017 15:00:00 32.325 C 15.94 g/m*3 32.33 C 5.375 km/h
353 22-06-2017 16:00:00 28.825 C 17.66 g/m*3 28.83 C 4.41667 km/h
354 22-06-2017 17:00:00 23.4 C 18.14 g/m*3 23.4 C 4.41667 km/h
355 22-06-2017 18:00:00 23.86667 C 19.16 g/m*3 23.87 C 4.00833 km/h
356 22-06-2017 19:00:00 23.775 C 18.65 g/m*3 23.78 C 7.09167 km/h
357 22-06-2017 20:00:00 22.175 C 18.38 g/m*3 22.18 C 2.26667 km/h
358 22-06-2017 21:00:00 21.84167 C 18.25 g/m*3 21.84 C 0.53333 km/h
359 22-06-2017 22:00:00 21.45833 C 17.87 g/m*3 21.46 C 0 km/h
360 22-06-2017 23:00:00 20.775 C 16.72 g/m*3 20.78 C 7.39167 km/h
361 23-06-2017 00:00:00 21.06667 C 14.63 g/m*3 21.07 C 8.18333 km/h
362 23-06-2017 01:00:00 18.95 C 14.12 g/m*3 18.95 C 2.15 km/h
363 23-06-2017 02:00:00 17.94167 C 13.34 g/m*3 17.94 C 2.01667 km/h
364 23-06-2017 03:00:00 17.85 C 13.56 g/m*3 17.85 C 0.53333 km/h
365 23-06-2017 04:00:00 18.08333 C 13.75 g/m*3 18.08 C 0 km/h
366 23-06-2017 05:00:00 17.80833 C 13.68 g/m*3 17.81 C 0 km/h
367 23-06-2017 06:00:00 17.95833 C 13.75 g/m*3 17.96 C 0.13333 km/h
368 23-06-2017 07:00:00 18.3 C 13.94 g/m*3 18.3 C 2 km/h
369 23-06-2017 08:00:00 19.075 C 14.28 g/m*3 19.08 C 2.94167 km/h
370 23-06-2017 09:00:00 20.31667 C 14.2 g/m*3 20.32 C 7.53333 km/h
371 23-06-2017 10:00:00 21.5 C 14.25 g/m*3 21.5 C 7.94167 km/h
372 23-06-2017 11:00:00 22.43333 C 13.55 g/m*3 22.43 C 8.875 km/h
373 23-06-2017 12:00:00 23.26667 C 13.62 g/m*3 23.27 C 8.89167 km/h
374 23-06-2017 13:00:00 24.49167 C 13.42 g/m*3 24.49 C 8.99167 km/h
375 23-06-2017 14:00:00 25.91667 C 13.81 g/m*3 25.92 C 11.825 km/h
Sensor: Nr:Datum:Temp:Abs-Feuchte:Windchill:Wind:
Aussen-T/F 376 23-06-2017 15:00:00 27.50833 C 13.39 g/m*3 27.51 C 10.74167 km/h
377 23-06-2017 16:00:00 28.51667 C 13.45 g/m*3 28.52 C 10.33333 km/h
378 23-06-2017 17:00:00 29.70833 C 12.44 g/m*3 29.71 C 11.96667 km/h
379 23-06-2017 18:00:00 29.58333 C 11.54 g/m*3 29.58 C 11.7 km/h
380 23-06-2017 19:00:00 28.475 C 10.75 g/m*3 28.48 C 10.21667 km/h
381 23-06-2017 20:00:00 26.68333 C 10.54 g/m*3 26.68 C 9.96667 km/h
382 23-06-2017 21:00:00 23.625 C 11.48 g/m*3 23.63 C 4.3 km/h
383 23-06-2017 22:00:00 20.83333 C 11.61 g/m*3 20.83 C 0.93333 km/h
384 23-06-2017 23:00:00 19.39167 C 11.63 g/m*3 19.39 C 0.8 km/h
385 24-06-2017 00:00:00 18.33333 C 11.7 g/m*3 18.33 C 0.26667 km/h
386 24-06-2017 01:00:00 16.95833 C 11.46 g/m*3 16.96 C 0.93333 km/h
387 24-06-2017 02:00:00 15.55833 C 11.08 g/m*3 15.56 C 0.13333 km/h
388 24-06-2017 03:00:00 14.625 C 10.88 g/m*3 14.63 C 0.13333 km/h
389 24-06-2017 04:00:00 13.78333 C 10.73 g/m*3 13.78 C 0.8 km/h
390 24-06-2017 05:00:00 13.70833 C 10.68 g/m*3 13.71 C 0.26667 km/h
391 24-06-2017 06:00:00 13.56667 C 10.49 g/m*3 13.57 C 0.26667 km/h
392 24-06-2017 07:00:00 14.80833 C 10.87 g/m*3 14.81 C 4.81667 km/h
393 24-06-2017 08:00:00 16.66667 C 10.8 g/m*3 16.67 C 7.925 km/h
394 24-06-2017 09:00:00 17.80833 C 10.31 g/m*3 17.81 C 12.23333 km/h
395 24-06-2017 10:00:00 18.90833 C 10.39 g/m*3 18.91 C 14.36667 km/h
396 24-06-2017 11:00:00 19.425 C 10.22 g/m*3 19.43 C 15.3 km/h
397 24-06-2017 12:00:00 20.575 C 10.26 g/m*3 20.58 C 14.9 km/h
398 24-06-2017 13:00:00 22.275 C 10.83 g/m*3 22.28 C 15.43333 km/h
399 24-06-2017 14:00:00 24.20833 C 11.21 g/m*3 24.21 C 12.63333 km/h
400 24-06-2017 15:00:00 25.8 C 11.26 g/m*3 25.8 C 12.9 km/h
Sensor: Nr:Datum:Temp:Abs-Feuchte:Windchill:Wind:
Aussen-T/F 401 24-06-2017 16:00:00 26.925 C 10.91 g/m*3 26.93 C 13.16667 km/h
402 24-06-2017 17:00:00 27.69167 C 10.74 g/m*3 27.69 C 14.5 km/h
403 24-06-2017 18:00:00 28.20833 C 10.5 g/m*3 28.21 C 14.5 km/h
404 24-06-2017 19:00:00 26.975 C 10.67 g/m*3 26.98 C 9.275 km/h
405 24-06-2017 20:00:00 24.55 C 10.87 g/m*3 24.55 C 6.7 km/h
406 24-06-2017 21:00:00 22.34167 C 11.07 g/m*3 22.34 C 1.46667 km/h
407 24-06-2017 22:00:00 19.86667 C 10.9 g/m*3 19.87 C 1.2 km/h
408 24-06-2017 23:00:00 18.6 C 10.81 g/m*3 18.6 C 0.53333 km/h
409 25-06-2017 00:00:00 17.41667 C 10.88 g/m*3 17.42 C 0.4 km/h
410 25-06-2017 01:00:00 16.76667 C 10.88 g/m*3 16.77 C 1.33333 km/h
411 25-06-2017 02:00:00 16.275 C 10.82 g/m*3 16.27 C 0.13333 km/h
412 25-06-2017 03:00:00 16.3 C 10.84 g/m*3 16.3 C 0.53333 km/h
413 25-06-2017 04:00:00 15.75 C 10.88 g/m*3 15.75 C 1.46667 km/h
414 25-06-2017 05:00:00 15.50833 C 10.84 g/m*3 15.51 C 0.13333 km/h
415 25-06-2017 06:00:00 15.95833 C 11.33 g/m*3 15.96 C 0.80833 km/h
416 25-06-2017 07:00:00 16.99167 C 11.45 g/m*3 16.99 C 4.55833 km/h
417 25-06-2017 08:00:00 18.55833 C 12.11 g/m*3 18.56 C 4.675 km/h
418 25-06-2017 09:00:00 19.88333 C 12.72 g/m*3 19.88 C 5.475 km/h
419 25-06-2017 10:00:00 21.20833 C 13.2 g/m*3 21.21 C 10.08333 km/h
420 25-06-2017 11:00:00 21.35 C 12.74 g/m*3 21.35 C 12.49167 km/h
421 25-06-2017 12:00:00 20.85 C 13.57 g/m*3 20.85 C 8.875 km/h
422 25-06-2017 13:00:00 21.15833 C 13.67 g/m*3 21.16 C 10.61667 km/h
423 25-06-2017 14:00:00 22.93333 C 13.36 g/m*3 22.93 C 13.83333 km/h
424 25-06-2017 15:00:00 23.24167 C 12.76 g/m*3 23.24 C 14.63333 km/h
425 25-06-2017 16:00:00 23.425 C 13.3 g/m*3 23.43 C 13.3 km/h
Sensor: Nr:Datum:Temp:Abs-Feuchte:Windchill:Wind:
Aussen-T/F 426 25-06-2017 17:00:00 25.04167 C 13.27 g/m*3 25.04 C 13.96667 km/h
427 25-06-2017 18:00:00 24.59167 C 12.58 g/m*3 24.59 C 14.5 km/h
428 25-06-2017 19:00:00 23.61667 C 11.71 g/m*3 23.62 C 12.625 km/h
429 25-06-2017 20:00:00 22.95 C 11.68 g/m*3 22.95 C 6.84167 km/h
430 25-06-2017 21:00:00 21.68333 C 12.2 g/m*3 21.68 C 1.2 km/h
431 25-06-2017 22:00:00 20.94167 C 11.93 g/m*3 20.94 C 3.2 km/h
432 25-06-2017 23:00:00 20.63333 C 12.21 g/m*3 20.63 C 3.73333 km/h
433 26-06-2017 00:00:00 19.99167 C 12.47 g/m*3 19.99 C 1.2 km/h
434 26-06-2017 01:00:00 19.1 C 12.51 g/m*3 19.1 C 0 km/h
435 26-06-2017 02:00:00 17.89167 C 12.23 g/m*3 17.89 C 0 km/h
436 26-06-2017 03:00:00 17.15 C 12.14 g/m*3 17.15 C 0 km/h
437 26-06-2017 04:00:00 16.80833 C 12.04 g/m*3 16.81 C 0.13333 km/h
438 26-06-2017 05:00:00 16.60833 C 11.9 g/m*3 16.61 C 4.15833 km/h
439 26-06-2017 06:00:00 17.14167 C 11.74 g/m*3 17.14 C 8.99167 km/h
440 26-06-2017 07:00:00 17.79167 C 11.88 g/m*3 17.79 C 6.3 km/h
441 26-06-2017 08:00:00 18.56667 C 12.18 g/m*3 18.57 C 6.025 km/h
442 26-06-2017 09:00:00 19.86667 C 12.37 g/m*3 19.87 C 4.01667 km/h
443 26-06-2017 10:00:00 21.46667 C 12.23 g/m*3 21.47 C 8.75 km/h
444 26-06-2017 11:00:00 22.05 C 12.29 g/m*3 22.05 C 7.38333 km/h
445 26-06-2017 12:00:00 22.56667 C 12.45 g/m*3 22.57 C 9.29167 km/h
446 26-06-2017 13:00:00 23.05833 C 12.48 g/m*3 23.06 C 9.53333 km/h
447 26-06-2017 14:00:00 23.54167 C 12.37 g/m*3 23.54 C 9.55 km/h
448 26-06-2017 15:00:00 24.90833 C 12.44 g/m*3 24.91 C 7.8 km/h
449 26-06-2017 16:00:00 26.45 C 12.36 g/m*3 26.45 C 10.9 km/h
450 26-06-2017 17:00:00 26.84167 C 12.5 g/m*3 26.84 C 11.425 km/h
Sensor: Nr:Datum:Temp:Abs-Feuchte:Windchill:Wind:
Aussen-T/F 451 26-06-2017 18:00:00 26.16667 C 12.35 g/m*3 26.17 C 11.83333 km/h
452 26-06-2017 19:00:00 24.65 C 12.15 g/m*3 24.65 C 9.69167 km/h
453 26-06-2017 20:00:00 23.63333 C 11.97 g/m*3 23.63 C 10.5 km/h
454 26-06-2017 21:00:00 22.175 C 11.75 g/m*3 22.18 C 4.95833 km/h
455 26-06-2017 22:00:00 19.76667 C 11.76 g/m*3 19.77 C 0 km/h
456 26-06-2017 23:00:00 18.65 C 11.68 g/m*3 18.65 C 0 km/h
457 27-06-2017 00:00:00 17.69167 C 11.67 g/m*3 17.69 C 0 km/h
458 27-06-2017 01:00:00 16.90833 C 11.48 g/m*3 16.91 C 0 km/h
459 27-06-2017 02:00:00 16.33333 C 11.42 g/m*3 16.33 C 0 km/h
460 27-06-2017 03:00:00 16.45 C 11.82 g/m*3 16.45 C 0.13333 km/h
461 27-06-2017 04:00:00 16.34167 C 11.76 g/m*3 16.34 C 0 km/h
462 27-06-2017 05:00:00 16.59167 C 12.01 g/m*3 16.59 C 0.13333 km/h
463 27-06-2017 06:00:00 16.45 C 12.24 g/m*3 16.45 C 0.13333 km/h
464 27-06-2017 07:00:00 16.43333 C 12.7 g/m*3 16.43 C 0.13333 km/h
465 27-06-2017 08:00:00 16.95 C 13.18 g/m*3 16.95 C 0.53333 km/h
466 27-06-2017 09:00:00 17.6 C 12.69 g/m*3 17.6 C 4.80833 km/h
467 27-06-2017 10:00:00 18.15833 C 12.86 g/m*3 18.16 C 6.175 km/h
468 27-06-2017 11:00:00 18.44167 C 13.27 g/m*3 18.44 C 3.475 km/h
469 27-06-2017 12:00:00 19.00833 C 13.45 g/m*3 19.01 C 5.89167 km/h
470 27-06-2017 13:00:00 19.05 C 13.93 g/m*3 19.05 C 5.89167 km/h
471 27-06-2017 14:00:00 19.80833 C 14.43 g/m*3 19.81 C 8.46667 km/h
472 27-06-2017 15:00:00 21.63333 C 15.17 g/m*3 21.63 C 7.51667 km/h
473 27-06-2017 16:00:00 23.06667 C 15.63 g/m*3 23.07 C 7.94167 km/h
474 27-06-2017 17:00:00 23.46667 C 15.64 g/m*3 23.47 C 5.34167 km/h
475 27-06-2017 18:00:00 21.83333 C 16.2 g/m*3 21.83 C 0.4 km/h
Sensor: Nr:Datum:Temp:Abs-Feuchte:Windchill:Wind:
Aussen-T/F 476 27-06-2017 19:00:00 20.51667 C 16.34 g/m*3 20.52 C 0.26667 km/h
477 27-06-2017 20:00:00 20.55833 C 16.63 g/m*3 20.56 C 0.13333 km/h
478 27-06-2017 21:00:00 19.80833 C 15.89 g/m*3 19.81 C 0 km/h
479 27-06-2017 22:00:00 19.19167 C 15.51 g/m*3 19.19 C 0 km/h
480 27-06-2017 23:00:00 18.93333 C 15.42 g/m*3 18.93 C 0 km/h
481 28-06-2017 00:00:00 18.78333 C 15.28 g/m*3 18.78 C 0 km/h
482 28-06-2017 01:00:00 18.76667 C 15.42 g/m*3 18.77 C 2.53333 km/h
483 28-06-2017 02:00:00 18.38333 C 15.01 g/m*3 18.38 C 0 km/h
484 28-06-2017 03:00:00 18.25 C 14.97 g/m*3 18.25 C 1.075 km/h
485 28-06-2017 04:00:00 17.96667 C 14.72 g/m*3 17.97 C 2.94167 km/h
486 28-06-2017 05:00:00 17.8 C 14.57 g/m*3 17.8 C 0 km/h
487 28-06-2017 06:00:00 17.96667 C 14.78 g/m*3 17.97 C 0 km/h
488 28-06-2017 07:00:00 18.3 C 15.04 g/m*3 18.3 C 0.13333 km/h
489 28-06-2017 08:00:00 19.14167 C 15.94 g/m*3 19.14 C 0.13333 km/h
490 28-06-2017 09:00:00 18.91667 C 15.64 g/m*3 18.92 C 1.33333 km/h
491 28-06-2017 10:00:00 19.11667 C 15.85 g/m*3 19.12 C 0.4 km/h
492 28-06-2017 11:00:00 19.70833 C 16.35 g/m*3 19.71 C 2.81667 km/h
493 28-06-2017 12:00:00 20.40833 C 16.16 g/m*3 20.41 C 7.11667 km/h
494 28-06-2017 13:00:00 21.175 C 15.87 g/m*3 21.18 C 9.80833 km/h
495 28-06-2017 14:00:00 21.59167 C 15.39 g/m*3 21.59 C 13.3 km/h
496 28-06-2017 15:00:00 21.825 C 15.68 g/m*3 21.83 C 6.30833 km/h
497 28-06-2017 16:00:00 22.30833 C 16.51 g/m*3 22.31 C 7.91667 km/h
498 28-06-2017 17:00:00 23.59167 C 17.54 g/m*3 23.59 C 6.04167 km/h
499 28-06-2017 18:00:00 22.94167 C 17.12 g/m*3 22.94 C 1.73333 km/h
500 28-06-2017 19:00:00 22.00833 C 16.63 g/m*3 22.01 C 0.13333 km/h
Sensor: Nr:Datum:Temp:Abs-Feuchte:Windchill:Wind:
Aussen-T/F 501 28-06-2017 20:00:00 22.375 C 16.34 g/m*3 22.38 C 0.53333 km/h
502 28-06-2017 21:00:00 19.63333 C 14.57 g/m*3 19.63 C 0.26667 km/h
503 28-06-2017 22:00:00 17.76667 C 13.68 g/m*3 17.77 C 0 km/h
504 28-06-2017 23:00:00 16.525 C 13.02 g/m*3 16.52 C 0 km/h

Maximal/Minimal-Werte vom 08.06.2017 - 28.06.2017

Sensor Min Max Avg
Temp
(Aussen-T/F)
9.4 °C
10-06-2017  05:25:00
34.6 °C
20-06-2017  16:05:00
20.23 °C
Abs-Feuchte
(Aussen-T/F)
7.81 g/m*3
12-06-2017  14:00:00
19.16 g/m*3
22-06-2017  18:00:00
12.01 g/m*3
Windchill
(Aussen-T/F)
9.49 C
10-06-2017  05:00:00
34.33 C
20-06-2017  16:00:00
20.19 C

Die Daten stammen von einer Davis Vantage Pro 2 Wetter-Station und werden unter Linux mit der Software wview2wettercgi und aufbereitet. Alle Angaben erfolgen ohne Gewähr für ihre Vollständigkeit oder Richtigkeit.
Kontakt: Rainer Krienke krienke@uni-koblenz.de . Meine Webseiten an der Uni Koblenz oder privat.
Version: $Revision: 0.78 $